Bremgarten, Germany

6:31 AM CEST on April 02, 2015 (GMT +0200)
Bad Krozingen, suedlicher Breisgau | | Change Station
CLOSE
Current Station
Personal Weather Station
Location: Bad Krozingen, BADEN-WüRTTEMBERG
Elevation: 787 ft
Nearby Weather Stations
Active Advisory: Snow/Ice um 5 cm

Elev 787 ft 47.91 °N, 7.71 °E | Updated 1 minute ago

Overcast
Overcast
45.0 °F
Feels Like 40 °F
N
9.6
Wind Variable Wind from SW
Gusts 9.6 mph

Today
High -- | Low -- °F
--% Chance of Precip.
Yesterday
High -- | Low -- °F
Precip. -- in
7:06 AM 8:00 PM
Waxing Gibbous, 95% visible
Pressure 30.12 in
Visibility 6.2 miles
Clouds Few 4000 ft
Mostly Cloudy 5300 ft
Overcast 7300 ft
Windchill 40 °F
Dew Point 35 °F
Humidity 67%
Rainfall 0.00 in
Snow Depth Not available.
UV 0.0 out of 12
Pollen Not available.
Air Quality Not available.
Flu Activity Not available.
METAR LFSB 020400Z 24014KT 200V270 9999 FEW040 BKN053 OVC073 07/00 Q1020 BECMG 25015G25KT

More Conditions Fewer Conditions

Pressure 30.12 in
Visibility 6.2 miles
Clouds Few 4000 ft
Mostly Cloudy 5300 ft
Overcast 7300 ft
Windchill 40 °F
Dew Point 35 °F
Humidity 67%
Rainfall 0.00 in
Snow Depth Not available.
UV 0.0 out of 12
Pollen Not available.
Air Quality Not available.
Flu Activity Not available.
METAR LFSB 020400Z 24014KT 200V270 9999 FEW040 BKN053 OVC073 07/00 Q1020 BECMG 25015G25KT

More Conditions Fewer Conditions

10-Day Weather Forecast

Almanac

Astronomy

Apr. 02, 2015 Rise Set
Actual Time
Civil Twilight
Nautical Twilight
Astronomical Twilight
Moon
Length of Visible Light
Length of Day
Tomorrow will be .
, % of the Moon is Illuminated

Today's Extremes

Country Highs Country Lows

Community

WunderPhotos

Upload Photos

1,810,198 photos uploaded!

WunderBlogs® & News

Nearby

Air Quality

  Air Quality AQ Index Pollutant
Not available.

Snow Depth

Station Depth Elevation

Earthquake Activity

City Distance Mag. Time & Date
Minimum magnitude displayed is 2.5.

Coastal Water Temperatures

Place Temperature

Stations

Nearby Weather Stations

Station Location Temp. Windchill Dew Point Humidity Wind Precip. Elev Updated Type